createdAt,value
2022-12-18T02:11:38.980Z,101979.80
2022-12-18T02:14:39.473Z,101979.80
2022-12-18T02:17:23.101Z,101977.80
2022-12-18T02:20:25.614Z,101985.60
2022-12-18T02:23:07.604Z,101988.80
2022-12-18T02:26:06.122Z,101995.00
2022-12-18T02:28:42.634Z,102003.20
2022-12-18T02:31:18.872Z,102006.40
2022-12-18T02:33:51.064Z,102006.80
2022-12-18T02:36:22.895Z,102001.00
2022-12-18T02:38:53.206Z,102008.20
2022-12-18T02:41:24.656Z,102010.00
2022-12-18T02:44:08.376Z,102014.20
2022-12-18T02:46:40.816Z,102022.20
2022-12-18T02:50:13.152Z,102018.00
2022-12-18T02:52:55.193Z,102020.00
2022-12-18T02:55:49.297Z,102022.00
2022-12-18T02:59:03.279Z,102021.80
2022-12-18T03:01:59.721Z,102036.20
2022-12-18T03:04:40.773Z,102038.80
2022-12-18T03:07:21.169Z,102041.00
2022-12-18T03:09:52.370Z,102047.20
2022-12-18T03:12:33.254Z,102055.40
2022-12-18T03:15:28.961Z,102064.00
2022-12-18T03:18:09.976Z,102063.60
2022-12-18T03:20:40.532Z,102064.40
2022-12-18T03:23:17.012Z,102062.80
2022-12-18T03:25:48.723Z,102067.20
2022-12-18T03:28:22.653Z,102068.60
2022-12-18T03:31:00.569Z,102073.80
2022-12-18T03:33:42.053Z,102075.80
2022-12-18T03:36:10.600Z,102084.60
2022-12-18T03:38:40.700Z,102088.00
2022-12-18T03:41:45.948Z,102094.00
2022-12-18T03:45:00.324Z,102092.60
2022-12-18T03:47:40.878Z,102096.40
2022-12-18T03:50:34.208Z,102098.80
2022-12-18T03:53:59.652Z,102095.00
2022-12-18T03:56:38.500Z,102099.60
2022-12-18T03:59:09.108Z,102102.60
2022-12-18T04:01:44.222Z,102106.60
2022-12-18T04:04:15.190Z,102107.20
2022-12-18T04:06:46.461Z,102114.40
2022-12-18T04:09:15.780Z,102121.60
2022-12-18T04:11:47.165Z,102124.60
2022-12-18T04:14:18.268Z,102128.80
2022-12-18T04:16:47.004Z,102134.00
2022-12-18T04:19:16.682Z,102141.20
2022-12-18T04:21:45.698Z,102140.60
2022-12-18T04:24:14.141Z,102139.20
2022-12-18T04:26:47.079Z,102142.00
2022-12-18T04:29:19.936Z,102151.40
2022-12-18T04:31:48.604Z,102157.20
2022-12-18T04:34:16.763Z,102155.20
2022-12-18T04:36:49.464Z,102160.60
2022-12-18T04:39:17.463Z,102167.80
2022-12-18T04:41:45.816Z,102174.80
2022-12-18T04:44:14.530Z,102174.40
2022-12-18T04:46:42.478Z,102174.40
2022-12-18T04:49:11.858Z,102178.00
2022-12-18T04:51:40.114Z,102171.20
2022-12-18T04:54:07.895Z,102181.80
2022-12-18T04:56:35.696Z,102182.00
2022-12-18T04:59:03.503Z,102185.60
2022-12-18T05:01:34.825Z,102185.80
2022-12-18T05:04:04.370Z,102191.80
2022-12-18T05:06:32.280Z,102192.40
2022-12-18T05:09:00.291Z,102197.60
2022-12-18T05:11:28.031Z,102206.20
2022-12-18T05:13:57.485Z,102221.00
2022-12-18T05:16:25.439Z,102217.20
2022-12-18T05:18:53.292Z,102223.60
2022-12-18T05:21:21.334Z,102219.60
2022-12-18T05:23:49.110Z,102224.60
2022-12-18T05:26:19.230Z,102228.60
2022-12-18T05:28:47.069Z,102234.80
2022-12-18T05:31:15.288Z,102234.40
2022-12-18T05:33:43.708Z,102239.80
2022-12-18T05:36:12.567Z,102242.40
2022-12-18T05:38:41.012Z,102244.00
2022-12-18T05:41:09.898Z,102250.80
2022-12-18T05:43:40.456Z,102251.80
2022-12-18T05:46:14.295Z,102254.60
2022-12-18T05:48:43.592Z,102249.80
2022-12-18T05:51:18.832Z,102250.40
2022-12-18T05:53:46.823Z,102256.40
2022-12-18T05:56:21.942Z,102257.40
2022-12-18T05:58:55.045Z,102254.20
2022-12-18T06:01:27.743Z,102249.40
2022-12-18T06:03:56.439Z,102252.60
2022-12-18T06:06:28.288Z,102259.20
2022-12-18T06:08:57.662Z,102265.80
2022-12-18T06:11:27.607Z,102279.40
2022-12-18T06:13:58.936Z,102290.60
2022-12-18T06:16:31.517Z,102291.40
2022-12-18T06:19:06.133Z,102299.00
2022-12-18T06:21:35.660Z,102299.00
2022-12-18T06:24:04.400Z,102308.20
2022-12-18T06:26:32.140Z,102308.40
2022-12-18T06:28:59.976Z,102309.80
2022-12-18T06:31:28.058Z,102317.00
2022-12-18T06:33:56.900Z,102322.00
2022-12-18T06:36:24.665Z,102327.60
2022-12-18T06:38:52.422Z,102335.00
2022-12-18T06:41:22.364Z,102338.60
2022-12-18T06:43:50.638Z,102341.80
2022-12-18T06:46:18.748Z,102344.40
2022-12-18T06:48:51.101Z,102348.60
2022-12-18T06:51:21.908Z,102352.20
2022-12-18T06:53:50.656Z,102361.60
2022-12-18T06:56:18.591Z,102364.20
2022-12-18T06:58:46.446Z,102363.60
2022-12-18T07:01:16.471Z,102371.80
2022-12-18T07:03:45.305Z,102377.00
2022-12-18T07:06:17.513Z,102380.00
2022-12-18T07:08:47.018Z,102386.00
2022-12-18T07:11:16.210Z,102390.40
2022-12-18T07:13:44.231Z,102393.60
2022-12-18T07:16:22.328Z,102400.00
2022-12-18T07:18:53.793Z,102401.20
2022-12-18T07:21:22.591Z,102404.60
2022-12-18T07:23:50.481Z,102405.80
2022-12-18T07:26:21.413Z,102406.00
2022-12-18T07:28:49.741Z,102411.20
2022-12-18T07:31:21.589Z,102410.40
2022-12-18T07:33:51.856Z,102407.80
2022-12-18T07:36:24.152Z,102410.00
2022-12-18T07:38:53.947Z,102418.40
2022-12-18T07:41:22.346Z,102419.00
2022-12-18T07:43:50.353Z,102419.20
2022-12-18T07:46:19.527Z,102429.60
2022-12-18T07:48:49.566Z,102432.40
2022-12-18T07:51:19.776Z,102432.20
2022-12-18T07:53:49.284Z,102437.60
2022-12-18T07:56:30.418Z,102440.00
2022-12-18T07:59:00.297Z,102449.40
2022-12-18T08:01:31.304Z,102448.40
2022-12-18T08:03:59.784Z,102458.80
2022-12-18T08:06:27.816Z,102461.00
2022-12-18T08:08:57.204Z,102469.40
2022-12-18T08:11:28.272Z,102473.60
2022-12-18T08:13:56.738Z,102476.40
2022-12-18T08:16:25.083Z,102477.40
2022-12-18T08:18:54.601Z,102483.40
2022-12-18T08:21:27.482Z,102485.80
2022-12-18T08:23:58.946Z,102487.40
2022-12-18T08:26:30.037Z,102495.40
2022-12-18T08:29:00.084Z,102502.60
2022-12-18T08:31:30.795Z,102498.60
2022-12-18T08:33:58.860Z,102502.20
2022-12-18T08:36:27.393Z,102510.60
2022-12-18T08:38:55.481Z,102515.20
2022-12-18T08:41:23.642Z,102511.40
2022-12-18T08:44:15.317Z,102517.80
2022-12-18T08:46:45.099Z,102516.80
2022-12-18T08:49:13.219Z,102513.40
2022-12-18T08:51:41.158Z,102514.00
2022-12-18T08:54:13.818Z,102513.00
2022-12-18T08:56:41.560Z,102520.40
2022-12-18T08:59:15.826Z,102522.00
2022-12-18T09:01:47.973Z,102526.80
2022-12-18T09:04:16.344Z,102530.80
2022-12-18T09:06:44.473Z,102530.60
2022-12-18T09:09:12.542Z,102528.80
2022-12-18T09:11:40.649Z,102533.60
2022-12-18T09:14:09.752Z,102539.20
2022-12-18T09:16:37.865Z,102532.60
2022-12-18T09:19:07.169Z,102537.80
2022-12-18T09:21:37.116Z,102539.60
2022-12-18T09:24:08.785Z,102538.40
2022-12-18T09:26:37.646Z,102544.20
2022-12-18T09:29:06.819Z,102549.40
2022-12-18T09:31:36.644Z,102552.60
2022-12-18T09:34:04.856Z,102557.40
2022-12-18T09:36:32.916Z,102551.00
2022-12-18T09:39:03.834Z,102555.00
2022-12-18T09:41:45.682Z,102553.80
2022-12-18T09:44:35.374Z,102557.60
2022-12-18T09:47:19.632Z,102558.00
2022-12-18T09:49:53.105Z,102551.40
2022-12-18T09:52:41.125Z,102553.80
2022-12-18T09:55:42.164Z,102556.00
2022-12-18T09:58:42.039Z,102561.80
2022-12-18T10:01:17.559Z,102562.40
2022-12-18T10:03:46.549Z,102550.40
2022-12-18T10:06:42.154Z,102548.60
2022-12-18T10:09:27.366Z,102550.80
2022-12-18T10:12:20.977Z,102564.80
2022-12-18T10:15:05.702Z,102569.20
2022-12-18T10:18:14.028Z,102572.80
2022-12-18T10:20:53.278Z,102573.00
2022-12-18T10:23:47.875Z,102573.80
2022-12-18T10:26:16.398Z,102573.20
2022-12-18T10:28:45.073Z,102573.80
2022-12-18T10:31:21.040Z,102577.40
2022-12-18T10:33:56.867Z,102573.60
2022-12-18T10:36:26.293Z,102571.60
2022-12-18T10:38:54.225Z,102576.00
2022-12-18T10:41:24.150Z,102571.80
2022-12-18T10:44:28.977Z,102574.40
2022-12-18T10:47:10.201Z,102570.80
2022-12-18T10:49:49.270Z,102571.60
2022-12-18T10:52:25.591Z,102566.60
2022-12-18T10:55:04.213Z,102564.20
2022-12-18T10:57:39.032Z,102563.40
2022-12-18T11:00:29.252Z,102566.20
2022-12-18T11:02:58.587Z,102574.80
2022-12-18T11:05:31.433Z,102577.80
2022-12-18T11:08:01.493Z,102580.80
2022-12-18T11:10:36.501Z,102578.00
2022-12-18T11:13:32.680Z,102574.80
2022-12-18T11:16:00.921Z,102579.40
2022-12-18T11:18:37.354Z,102573.00
2022-12-18T11:21:11.972Z,102570.40
2022-12-18T11:23:53.299Z,102572.20
2022-12-18T11:26:22.782Z,102571.00
2022-12-18T11:29:08.092Z,102586.00
2022-12-18T11:31:35.895Z,102584.60
2022-12-18T11:34:32.186Z,102582.20
2022-12-18T11:37:04.037Z,102592.20
2022-12-18T11:39:40.349Z,102590.20
2022-12-18T11:42:23.649Z,102585.60
2022-12-18T11:45:19.427Z,102582.20
2022-12-18T11:48:33.473Z,102582.80
2022-12-18T11:51:05.896Z,102584.00
2022-12-18T11:53:33.676Z,102589.80
2022-12-18T11:56:36.880Z,102591.80
2022-12-18T11:59:16.527Z,102591.80
2022-12-18T12:02:25.748Z,102586.80
2022-12-18T12:05:26.073Z,102588.00
2022-12-18T12:08:11.940Z,102589.00
2022-12-18T12:10:52.124Z,102587.40
2022-12-18T12:13:56.072Z,102583.40
2022-12-18T12:16:55.940Z,102581.80
2022-12-18T12:19:56.913Z,102590.40
2022-12-18T12:23:14.074Z,102587.00
2022-12-18T12:25:53.518Z,102588.60
2022-12-18T12:28:55.972Z,102594.20
2022-12-18T12:31:47.688Z,102604.20
2022-12-18T12:34:41.060Z,102609.40
2022-12-18T12:37:20.885Z,102614.60
2022-12-18T12:39:49.149Z,102615.00
2022-12-18T12:42:50.553Z,102618.60
2022-12-18T12:45:28.979Z,102621.60
2022-12-18T12:47:59.141Z,102627.40
2022-12-18T12:50:27.220Z,102625.20
2022-12-18T12:52:58.268Z,102628.20
2022-12-18T12:55:30.739Z,102629.20
2022-12-18T12:58:17.673Z,102632.40
2022-12-18T13:00:55.777Z,102640.80
2022-12-18T13:03:54.433Z,102648.00
2022-12-18T13:06:50.944Z,102654.80
2022-12-18T13:09:18.981Z,102666.20
2022-12-18T13:12:08.062Z,102664.40
2022-12-18T13:14:42.040Z,102671.00
2022-12-18T13:17:30.365Z,102668.80
2022-12-18T13:20:13.715Z,102669.80
2022-12-18T13:22:48.338Z,102677.20
2022-12-18T13:25:38.155Z,102680.40
2022-12-18T13:28:21.417Z,102686.00
2022-12-18T13:30:58.037Z,102682.60
2022-12-18T13:33:26.654Z,102680.00
2022-12-18T13:36:17.546Z,102675.80
2022-12-18T13:38:45.817Z,102679.60
2022-12-18T13:41:28.018Z,102680.20
2022-12-18T13:43:59.073Z,102684.80
2022-12-18T13:46:44.650Z,102692.80
2022-12-18T13:49:15.380Z,102694.60
2022-12-18T13:51:57.340Z,102694.20
2022-12-18T13:54:42.096Z,102696.80
2022-12-18T13:57:39.351Z,102693.00
2022-12-18T14:00:28.884Z,102687.80
2022-12-18T14:02:59.295Z,102696.60
2022-12-18T14:05:32.171Z,102702.40
2022-12-18T14:08:15.286Z,102705.60
2022-12-18T14:10:49.028Z,102711.80
2022-12-18T14:13:38.515Z,102709.00
2022-12-18T14:16:08.471Z,102707.00
2022-12-18T14:18:45.812Z,102712.40
2022-12-18T14:21:38.935Z,102718.20
2022-12-18T14:24:17.495Z,102723.40
2022-12-18T14:26:51.377Z,102725.80
2022-12-18T14:29:31.201Z,102727.40
2022-12-18T14:32:19.034Z,102720.80
2022-12-18T14:34:52.472Z,102715.40
2022-12-18T14:37:28.333Z,102714.20
2022-12-18T14:40:07.180Z,102722.00
2022-12-18T14:42:38.357Z,102721.60
2022-12-18T14:45:42.386Z,102725.60
2022-12-18T14:48:34.032Z,102724.80
2022-12-18T14:51:11.654Z,102736.60
2022-12-18T14:53:56.473Z,102737.80
2022-12-18T14:56:31.454Z,102740.20
2022-12-18T14:59:04.553Z,102746.00
2022-12-18T15:01:40.413Z,102742.40
2022-12-18T15:04:26.611Z,102743.00
2022-12-18T15:07:27.692Z,102737.80
2022-12-18T15:10:13.758Z,102740.40
2022-12-18T15:12:49.346Z,102750.20
2022-12-18T15:15:38.624Z,102752.80
2022-12-18T15:18:12.726Z,102756.00
2022-12-18T15:20:56.128Z,102754.40
2022-12-18T15:23:47.922Z,102752.20
2022-12-18T15:26:19.323Z,102748.60
2022-12-18T15:28:53.627Z,102750.20
2022-12-18T15:31:36.390Z,102750.00
2022-12-18T15:34:15.506Z,102748.20
2022-12-18T15:36:43.704Z,102750.60
2022-12-18T15:39:14.167Z,102760.20
2022-12-18T15:42:02.014Z,102764.00
2022-12-18T15:44:29.987Z,102762.00
2022-12-18T15:46:59.024Z,102769.40
2022-12-18T15:49:26.717Z,102771.60
2022-12-18T15:52:02.679Z,102771.00
2022-12-18T15:54:49.025Z,102776.40
2022-12-18T15:57:26.465Z,102775.80
2022-12-18T16:00:00.050Z,102776.20
2022-12-18T16:02:29.679Z,102772.60
2022-12-18T16:04:58.087Z,102773.40
2022-12-18T16:07:28.136Z,102777.40
2022-12-18T16:09:59.111Z,102776.00
2022-12-18T16:12:30.581Z,102776.40
2022-12-18T16:14:58.592Z,102774.80
2022-12-18T16:17:26.482Z,102778.60
2022-12-18T16:19:54.310Z,102783.00
2022-12-18T16:22:28.384Z,102785.00
2022-12-18T16:24:58.226Z,102777.40
2022-12-18T16:27:26.786Z,102778.00
2022-12-18T16:29:54.622Z,102779.20
2022-12-18T16:32:23.725Z,102773.80
2022-12-18T16:34:52.625Z,102774.40
2022-12-18T16:37:20.635Z,102778.60
2022-12-18T16:39:48.455Z,102780.40
2022-12-18T16:42:20.297Z,102781.20
2022-12-18T16:44:50.474Z,102781.80
2022-12-18T16:47:19.787Z,102788.80
2022-12-18T16:49:51.622Z,102779.80
2022-12-18T16:52:21.088Z,102782.40
2022-12-18T16:54:49.385Z,102787.40
2022-12-18T16:57:21.089Z,102786.20
2022-12-18T16:59:52.196Z,102792.40
2022-12-18T17:02:24.427Z,102804.00
2022-12-18T17:04:57.221Z,102814.00
2022-12-18T17:07:26.652Z,102819.40
2022-12-18T17:09:54.682Z,102813.80
2022-12-18T17:12:23.420Z,102814.80
2022-12-18T17:14:51.408Z,102811.80
2022-12-18T17:17:22.362Z,102815.00
2022-12-18T17:19:52.640Z,102814.60
2022-12-18T17:22:23.557Z,102817.80
2022-12-18T17:24:52.129Z,102816.80
2022-12-18T17:27:20.394Z,102807.80
2022-12-18T17:29:49.486Z,102811.40
2022-12-18T17:32:17.900Z,102814.20
2022-12-18T17:34:46.393Z,102817.60
2022-12-18T17:37:14.485Z,102814.00
2022-12-18T17:39:42.582Z,102813.60
2022-12-18T17:42:15.192Z,102812.20
2022-12-18T17:44:45.136Z,102811.80
2022-12-18T17:47:15.888Z,102822.00
2022-12-18T17:49:43.929Z,102820.40
2022-12-18T17:52:12.026Z,102817.20
2022-12-18T17:54:41.956Z,102828.60
2022-12-18T17:57:10.586Z,102832.60
2022-12-18T17:59:38.530Z,102841.20
2022-12-18T18:02:07.258Z,102847.40
2022-12-18T18:04:36.221Z,102850.40
2022-12-18T18:07:04.173Z,102849.00
2022-12-18T18:09:32.396Z,102851.20
2022-12-18T18:12:19.079Z,102850.00
2022-12-18T18:14:47.469Z,102841.80
2022-12-18T18:17:15.490Z,102836.00
2022-12-18T18:19:44.223Z,102829.80
2022-12-18T18:22:17.356Z,102833.60
2022-12-18T18:24:46.928Z,102837.20
2022-12-18T18:27:15.422Z,102834.40
2022-12-18T18:29:43.348Z,102840.80
2022-12-18T18:32:11.233Z,102843.20
2022-12-18T18:34:38.977Z,102839.60
2022-12-18T18:37:07.172Z,102835.80
2022-12-18T18:39:34.945Z,102837.60
2022-12-18T18:42:04.003Z,102841.00
2022-12-18T18:44:32.091Z,102844.40
2022-12-18T18:47:00.193Z,102845.80
2022-12-18T18:49:30.029Z,102847.80
2022-12-18T18:51:59.106Z,102847.80
2022-12-18T18:54:27.032Z,102852.20
2022-12-18T18:59:43.400Z,102842.40
2022-12-18T19:02:13.833Z,102833.60
2022-12-18T19:04:45.793Z,102827.80
2022-12-18T19:07:20.346Z,102826.40
2022-12-18T19:10:04.956Z,102833.80
2022-12-18T19:12:53.695Z,102849.20
2022-12-18T19:15:23.111Z,102858.40
2022-12-18T19:17:50.842Z,102846.80
2022-12-18T19:20:19.211Z,102843.20
2022-12-18T19:22:49.712Z,102840.00
2022-12-18T19:25:38.432Z,102841.20
2022-12-18T19:28:21.371Z,102836.60
2022-12-18T19:30:53.567Z,102840.00
2022-12-18T19:33:45.219Z,102857.40
2022-12-18T19:36:23.511Z,102868.00
2022-12-18T19:38:54.647Z,102867.80
2022-12-18T19:41:24.027Z,102871.20
2022-12-18T19:43:53.785Z,102869.80
2022-12-18T19:46:23.125Z,102873.20
2022-12-18T19:48:51.845Z,102871.60
2022-12-18T19:51:26.899Z,102866.00
2022-12-18T19:53:59.372Z,102867.40
2022-12-18T19:56:33.392Z,102868.20
2022-12-18T19:59:04.479Z,102860.20
2022-12-18T20:01:32.919Z,102852.80
2022-12-18T20:04:01.342Z,102850.40
2022-12-18T20:06:34.363Z,102859.20
2022-12-18T20:09:06.708Z,102863.40
2022-12-18T20:11:40.248Z,102856.00
2022-12-18T20:14:12.092Z,102855.80
2022-12-18T20:16:40.956Z,102859.80
2022-12-18T20:19:10.868Z,102855.80
2022-12-18T20:21:38.653Z,102858.20
2022-12-18T20:24:08.608Z,102855.80
2022-12-18T20:26:36.907Z,102856.40
2022-12-18T20:29:05.047Z,102866.40
2022-12-18T20:31:33.029Z,102875.80
2022-12-18T20:34:02.693Z,102872.00
2022-12-18T20:36:34.100Z,102859.20
2022-12-18T20:39:06.496Z,102859.20
2022-12-18T20:41:38.247Z,102867.00
2022-12-18T20:44:21.511Z,102871.20
2022-12-18T20:46:57.436Z,102880.00
2022-12-18T20:49:27.082Z,102877.20
2022-12-18T20:51:57.630Z,102880.20
2022-12-18T20:54:27.534Z,102889.00
2022-12-18T20:56:56.302Z,102897.20
2022-12-18T20:59:25.727Z,102895.40
2022-12-18T21:01:55.496Z,102891.00
2022-12-18T21:04:24.722Z,102895.00
2022-12-18T21:06:57.945Z,102891.00
2022-12-18T21:09:37.451Z,102895.40
2022-12-18T21:12:33.379Z,102888.20
2022-12-18T21:15:09.878Z,102900.20
2022-12-18T21:17:44.239Z,102901.00
2022-12-18T21:20:17.488Z,102893.00
2022-12-18T21:22:47.267Z,102890.60
2022-12-18T21:25:15.193Z,102899.60
2022-12-18T21:27:42.945Z,102903.00
2022-12-18T21:30:11.138Z,102893.00
2022-12-18T21:32:39.368Z,102884.60
2022-12-18T21:35:07.627Z,102878.40
2022-12-18T21:37:35.800Z,102877.00
2022-12-18T21:40:04.797Z,102872.60
2022-12-18T21:42:51.067Z,102870.20
2022-12-18T21:45:19.128Z,102866.40
2022-12-18T21:47:47.057Z,102867.40
2022-12-18T21:50:14.835Z,102863.60
2022-12-18T21:52:45.457Z,102850.00
2022-12-18T21:55:13.439Z,102837.00
2022-12-18T21:57:41.320Z,102831.00
2022-12-18T22:00:19.072Z,102821.60
2022-12-18T22:03:03.723Z,102811.40
2022-12-18T22:05:37.349Z,102819.20
2022-12-18T22:08:06.972Z,102803.80
2022-12-18T22:10:35.349Z,102798.80
2022-12-18T22:13:05.246Z,102793.60
2022-12-18T22:15:33.261Z,102790.20
2022-12-18T22:18:00.992Z,102787.40
2022-12-18T22:20:29.444Z,102781.20
2022-12-18T22:22:59.067Z,102785.40
2022-12-18T22:25:30.367Z,102780.20
2022-12-18T22:28:16.659Z,102781.40
2022-12-18T22:30:44.470Z,102782.00
2022-12-18T22:33:12.242Z,102776.00
2022-12-18T22:35:39.961Z,102780.00
2022-12-18T22:38:07.817Z,102786.80
2022-12-18T22:40:35.588Z,102786.00
2022-12-18T22:43:03.457Z,102782.00
2022-12-18T22:45:31.173Z,102779.80
2022-12-18T22:48:00.350Z,102791.00
2022-12-18T22:50:28.087Z,102785.60
2022-12-18T22:52:58.018Z,102780.60
2022-12-18T22:55:26.054Z,102775.40
2022-12-18T22:57:53.780Z,102773.00
2022-12-18T23:00:24.347Z,102787.00
2022-12-18T23:02:59.921Z,102788.60
2022-12-18T23:05:31.759Z,102786.60
2022-12-18T23:07:59.577Z,102786.60
2022-12-18T23:10:29.044Z,102787.20
2022-12-18T23:12:56.910Z,102782.60
2022-12-18T23:15:27.723Z,102779.80
2022-12-18T23:17:58.477Z,102780.60
2022-12-18T23:20:29.105Z,102783.40
2022-12-18T23:22:56.905Z,102782.20
2022-12-18T23:25:24.878Z,102782.40
2022-12-18T23:27:52.807Z,102779.20
2022-12-18T23:30:20.836Z,102776.20
2022-12-18T23:32:48.640Z,102776.20
2022-12-18T23:35:17.457Z,102780.60
2022-12-18T23:37:58.825Z,102773.40
2022-12-18T23:40:29.473Z,102768.80
2022-12-18T23:42:59.007Z,102769.00
2022-12-18T23:45:27.029Z,102769.60
2022-12-18T23:47:54.919Z,102768.40
2022-12-18T23:50:28.907Z,102771.80
2022-12-18T23:53:02.138Z,102776.00
2022-12-18T23:55:39.530Z,102769.40
2022-12-18T23:58:18.754Z,102766.80
